Time;durP1;ratioP1;P1;durP2;ratioP2;P2;SDS_P1;SDS_P2;PMS_P1;PMS_P2;Temp;Humidity;BMP_temperature;BMP_pressure;BME280_temperature;BME280_humidity;BME280_pressure;Samples;Min_cycle;Max_cycle;Signal;HPM_P1;HPM_P2
2022/10/04 00:01:47;;;;;;;6.57;2.85;;;14.60;95.70;;;;;;4949489;29;20015;-81
2022/10/04 00:04:27;;;;;;;4.10;2.90;;;14.60;95.70;;;;;;4958839;29;20051;-82
2022/10/04 00:07:12;;;;;;;4.72;2.97;;;14.60;95.60;;;;;;4958224;29;20020;-81
2022/10/04 00:10:00;;;;;;;6.13;3.17;;;14.70;95.60;;;;;;4945549;29;20031;-81
2022/10/04 00:12:51;;;;;;;5.82;3.28;;;14.60;95.60;;;;;;4938880;29;20107;-81
2022/10/04 00:15:37;;;;;;;6.78;3.63;;;14.60;95.60;;;;;;4938762;29;20047;-81
2022/10/04 00:18:27;;;;;;;4.63;3.38;;;14.60;95.60;;;;;;4935184;29;20036;-81
2022/10/04 00:20:53;;;;;;;5.07;3.40;;;14.60;95.60;;;;;;4935786;29;20027;-84
2022/10/04 00:23:44;;;;;;;5.47;3.55;;;14.60;95.60;;;;;;4935025;29;20039;-81
2022/10/04 00:26:23;;;;;;;6.25;3.45;;;14.60;95.60;;;;;;4934798;29;20023;-81
2022/10/04 00:28:50;;;;;;;8.80;3.90;;;14.60;95.60;;;;;;4937032;29;20091;-81
2022/10/04 00:31:24;;;;;;;6.13;3.83;;;14.60;95.70;;;;;;4919733;29;20524;-81
2022/10/04 00:33:50;;;;;;;9.45;3.78;;;14.60;95.70;;;;;;4935128;29;20118;-82
2022/10/04 00:36:36;;;;;;;5.15;3.78;;;14.60;95.70;;;;;;4936232;29;20108;-85
2022/10/04 00:39:07;;;;;;;5.70;3.75;;;14.60;95.70;;;;;;4935522;29;20500;-81
2022/10/04 00:41:43;;;;;;;6.75;3.92;;;14.60;95.70;;;;;;4935423;29;20091;-82
2022/10/04 00:44:23;;;;;;;9.20;3.65;;;14.60;95.80;;;;;;4935180;29;20036;-81
2022/10/04 00:46:50;;;;;;;6.00;3.80;;;14.60;95.80;;;;;;4935266;29;20020;-81
2022/10/04 00:49:21;;;;;;;6.85;4.20;;;14.60;95.80;;;;;;4919154;29;20028;-82
2022/10/04 00:52:11;;;;;;;5.55;3.70;;;14.60;95.80;;;;;;4936064;29;20036;-81
2022/10/04 00:54:43;;;;;;;6.05;4.15;;;14.60;95.70;;;;;;4935309;29;20479;-82
2022/10/04 00:57:24;;;;;;;5.60;3.67;;;14.60;95.70;;;;;;4935155;29;20472;-81
2022/10/04 00:59:52;;;;;;;;;;;14.60;95.80;;;;;;4934898;29;20032;-82
2022/10/04 01:02:26;;;;;;;6.00;3.40;;;14.60;95.70;;;;;;4934869;29;19907;-80
2022/10/04 01:05:09;;;;;;;7.32;3.75;;;14.50;95.70;;;;;;4935978;29;20039;-81
2022/10/04 01:07:39;;;;;;;6.40;3.70;;;14.50;95.70;;;;;;4936674;29;20090;-81
2022/10/04 01:10:07;;;;;;;5.03;3.33;;;14.50;95.70;;;;;;4934865;29;20034;-82
2022/10/04 01:12:43;;;;;;;8.43;3.88;;;14.50;95.70;;;;;;4934389;29;20060;-81
2022/10/04 01:15:20;;;;;;;5.88;4.03;;;14.50;95.80;;;;;;4934580;29;20035;-81
2022/10/04 01:18:07;;;;;;;8.27;3.63;;;14.50;95.80;;;;;;4935081;29;20543;-81
2022/10/04 01:20:36;;;;;;;9.02;3.63;;;14.50;95.80;;;;;;4934692;29;20127;-82
2022/10/04 01:23:03;;;;;;;6.80;3.50;;;14.50;95.80;;;;;;4934726;29;20028;-82
2022/10/04 01:25:45;;;;;;;7.35;3.28;;;14.50;95.80;;;;;;4935049;29;20035;-81
2022/10/04 01:28:12;;;;;;;4.85;3.22;;;14.50;95.80;;;;;;4935130;29;20028;-81
2022/10/04 01:30:38;;;;;;;6.32;3.75;;;14.50;95.80;;;;;;4919200;29;20028;-81
2022/10/04 01:33:07;;;;;;;5.90;3.20;;;14.50;95.80;;;;;;4935094;29;20043;-84
2022/10/04 01:35:36;;;;;;;7.25;4.00;;;14.50;95.80;;;;;;4921636;29;20055;-82
2022/10/04 01:38:06;;;;;;;6.03;3.58;;;14.50;95.90;;;;;;4941076;29;20024;-81
2022/10/04 01:40:39;;;;;;;6.18;3.78;;;14.50;95.80;;;;;;4940350;29;20060;-81
2022/10/04 01:43:11;;;;;;;7.05;4.03;;;14.50;95.80;;;;;;4942593;29;20130;-80
2022/10/04 01:45:50;;;;;;;6.65;3.85;;;14.50;95.80;;;;;;4962213;29;20091;-80
2022/10/04 01:48:22;;;;;;;5.15;3.75;;;14.50;95.90;;;;;;4963281;29;20016;-82
2022/10/04 01:51:03;;;;;;;4.95;3.40;;;14.50;95.90;;;;;;4946253;29;20019;-80
2022/10/04 01:53:41;;;;;;;5.68;3.90;;;14.40;95.90;;;;;;4960168;29;20027;-80
2022/10/04 01:56:12;;;;;;;5.75;3.47;;;14.40;95.90;;;;;;4938432;29;20074;-81
2022/10/04 01:58:52;;;;;;;6.72;3.53;;;14.40;96.00;;;;;;4938400;29;20020;-81
2022/10/04 02:01:42;;;;;;;7.43;3.53;;;14.40;96.00;;;;;;4937719;29;20028;-82
2022/10/04 02:04:17;;;;;;;8.73;4.20;;;14.40;95.90;;;;;;4937553;29;20028;-81
2022/10/04 02:06:45;;;;;;;9.85;4.00;;;14.40;95.90;;;;;;4938152;29;20031;-80
2022/10/04 02:09:19;;;;;;;7.35;3.78;;;14.30;95.90;;;;;;4921518;29;20031;-81
2022/10/04 02:11:52;;;;;;;7.78;4.00;;;14.30;95.90;;;;;;4938144;29;20055;-81
2022/10/04 02:14:21;;;;;;;6.53;3.45;;;14.30;95.90;;;;;;4938980;29;20031;-82
2022/10/04 02:16:52;;;;;;;6.43;3.90;;;14.30;95.90;;;;;;4937702;29;20027;-81
2022/10/04 02:19:24;;;;;;;6.43;3.90;;;14.40;96.00;;;;;;4939347;29;20024;-81
2022/10/04 02:21:51;;;;;;;7.88;4.03;;;14.30;96.00;;;;;;4937235;29;20031;-81
2022/10/04 02:24:17;;;;;;;7.90;4.45;;;14.40;96.00;;;;;;4921841;29;20404;-82
2022/10/04 02:26:51;;;;;;;8.73;4.90;;;14.30;96.00;;;;;;4921430;29;20035;-82
2022/10/04 02:29:21;;;;;;;8.05;4.65;;;14.30;96.10;;;;;;4937472;29;20028;-82
2022/10/04 02:34:36;;;;;;;8.30;4.70;;;14.30;96.10;;;;;;4938409;29;20059;-86
2022/10/04 02:37:03;;;;;;;6.93;4.78;;;14.30;96.10;;;;;;4937004;29;20039;-81
2022/10/04 02:39:53;;;;;;;6.28;4.72;;;14.30;96.10;;;;;;4921582;29;20102;-81
2022/10/04 02:42:43;;;;;;;8.55;5.18;;;14.30;96.10;;;;;;4936804;29;20054;-82
2022/10/04 02:45:35;;;;;;;9.23;4.68;;;14.30;96.00;;;;;;4937145;29;20071;-81
2022/10/04 02:48:10;;;;;;;8.98;4.90;;;14.30;96.00;;;;;;4936178;29;20387;-81
2022/10/04 02:50:49;;;;;;;7.72;4.93;;;14.30;95.90;;;;;;4936713;29;20027;-81
2022/10/04 02:53:45;;;;;;;8.10;4.65;;;14.30;95.90;;;;;;4936863;29;20118;-81
2022/10/04 02:56:12;;;;;;;8.65;5.20;;;14.30;96.00;;;;;;4936956;29;20143;-82
2022/10/04 02:58:39;;;;;;;9.07;5.25;;;14.30;96.00;;;;;;4905602;29;20032;-82
2022/10/04 03:01:05;;;;;;;8.15;5.13;;;14.30;96.20;;;;;;4936252;29;20082;-82
2022/10/04 03:03:36;;;;;;;8.82;4.63;;;14.20;95.90;;;;;;4936437;29;20031;-81
2022/10/04 03:06:16;;;;;;;7.47;4.35;;;14.20;95.80;;;;;;4937250;29;20023;-81
2022/10/04 03:08:56;;;;;;;6.68;5.00;;;14.20;95.80;;;;;;4936842;29;20075;-80
2022/10/04 03:11:26;;;;;;;7.43;4.45;;;14.20;95.70;;;;;;4937007;29;20036;-81
2022/10/04 03:13:56;;;;;;;6.03;4.85;;;14.20;95.60;;;;;;4936931;29;20465;-81
2022/10/04 03:16:23;;;;;;;8.25;5.38;;;14.10;95.70;;;;;;4921049;29;20039;-82
2022/10/04 03:18:52;;;;;;;6.65;4.78;;;14.10;95.70;;;;;;4936781;29;20080;-81
2022/10/04 03:21:20;;;;;;;6.57;4.32;;;14.10;95.70;;;;;;4937301;29;20020;-82
2022/10/04 03:23:49;;;;;;;6.85;5.00;;;14.00;95.70;;;;;;4937991;29;20036;-80
2022/10/04 03:26:33;;;;;;;9.00;4.93;;;14.00;95.70;;;;;;4932733;29;20047;-82
2022/10/04 03:28:59;;;;;;;9.50;6.10;;;14.00;95.80;;;;;;4960870;29;20028;-80
2022/10/04 03:31:27;;;;;;;8.85;5.60;;;14.00;95.80;;;;;;4944593;29;20063;-81
2022/10/04 03:33:59;;;;;;;11.30;5.68;;;14.00;95.80;;;;;;4959722;29;20039;-89
2022/10/04 03:36:26;;;;;;;7.45;5.60;;;14.00;95.70;;;;;;4952427;29;20043;-81
2022/10/04 03:38:55;;;;;;;8.68;5.18;;;13.90;95.70;;;;;;4905613;29;20028;-80
2022/10/04 03:41:24;;;;;;;8.25;5.55;;;13.90;95.70;;;;;;4921209;29;20119;-81
2022/10/04 03:43:52;;;;;;;7.65;5.65;;;13.90;95.70;;;;;;4920397;29;20051;-81
2022/10/04 03:46:22;;;;;;;7.10;5.32;;;13.90;95.70;;;;;;4936890;29;20027;-82
2022/10/04 03:48:51;;;;;;;9.25;5.70;;;13.80;95.60;;;;;;4920527;29;20028;-81
2022/10/04 03:51:20;;;;;;;8.98;5.75;;;13.80;95.60;;;;;;4936941;29;20023;-81
2022/10/04 03:53:51;;;;;;;8.98;5.55;;;13.80;95.70;;;;;;4935720;29;20059;-81
2022/10/04 03:56:19;;;;;;;;;;;13.70;95.70;;;;;;4936250;29;20028;-81
2022/10/04 03:58:46;;;;;;;9.50;5.75;;;13.80;95.70;;;;;;4936046;29;19906;-82
2022/10/04 04:01:28;;;;;;;10.05;6.43;;;13.70;95.70;;;;;;4935645;29;20112;-82
2022/10/04 04:04:17;;;;;;;8.38;5.90;;;13.60;95.60;;;;;;4935910;29;20032;-82
2022/10/04 04:06:50;;;;;;;8.32;5.70;;;13.60;95.60;;;;;;4935451;29;20074;-80
2022/10/04 04:09:28;;;;;;;11.10;6.25;;;13.60;95.70;;;;;;4935775;29;20035;-82
2022/10/04 04:11:57;;;;;;;6.90;6.03;;;13.50;95.80;;;;;;4935664;29;20364;-84
2022/10/04 04:14:26;;;;;;;9.02;6.28;;;13.50;95.90;;;;;;4919957;29;20539;-81
2022/10/04 04:17:13;;;;;;;8.90;6.03;;;13.50;95.90;;;;;;4935312;29;20024;-81
2022/10/04 04:19:42;;;;;;;10.20;5.90;;;13.50;95.80;;;;;;4936341;29;20055;-81
2022/10/04 04:22:15;;;;;;;10.07;6.60;;;13.50;95.80;;;;;;4919840;29;20031;-81
2022/10/04 04:24:42;;;;;;;7.38;5.95;;;13.50;95.80;;;;;;4936685;29;20372;-80
2022/10/04 04:27:09;;;;;;;9.32;6.25;;;13.40;95.70;;;;;;4919307;29;20388;-81
2022/10/04 04:29:44;;;;;;;8.50;5.47;;;13.40;95.70;;;;;;4918868;29;20038;-82
2022/10/04 04:32:32;;;;;;;9.27;5.55;;;13.40;95.80;;;;;;4935518;29;20350;-83
2022/10/04 04:35:05;;;;;;;10.77;6.28;;;13.40;95.70;;;;;;4919799;29;20097;-81
2022/10/04 04:37:35;;;;;;;8.93;5.97;;;13.30;95.60;;;;;;4936181;29;20036;-83
2022/10/04 04:40:23;;;;;;;8.88;5.97;;;13.30;95.60;;;;;;4935086;29;20023;-82
2022/10/04 04:42:50;;;;;;;7.72;5.90;;;13.20;95.50;;;;;;4934979;29;20047;-82
2022/10/04 04:45:19;;;;;;;8.60;6.15;;;13.20;95.50;;;;;;4934533;29;20040;-83
2022/10/04 04:47:50;;;;;;;9.93;6.20;;;13.20;95.50;;;;;;4936310;29;20032;-82
2022/10/04 04:50:23;;;;;;;7.70;5.53;;;13.20;95.60;;;;;;4935268;29;20020;-83
2022/10/04 04:53:28;;;;;;;12.88;6.30;;;13.10;95.60;;;;;;4935516;29;20385;-81
2022/10/04 04:55:59;;;;;;;9.05;6.10;;;13.10;95.70;;;;;;4921654;29;20036;-81
2022/10/04 04:58:34;;;;;;;10.30;6.38;;;13.00;95.70;;;;;;4935406;29;20042;-81
2022/10/04 05:01:20;;;;;;;9.20;5.85;;;13.00;95.70;;;;;;4935617;29;20086;-81
2022/10/04 05:04:01;;;;;;;8.80;6.35;;;13.00;95.80;;;;;;4936575;29;20032;-82
2022/10/04 05:06:29;;;;;;;8.50;5.75;;;13.00;95.80;;;;;;4948743;29;20088;-86
2022/10/04 05:08:55;;;;;;;7.70;5.80;;;13.00;95.80;;;;;;4927875;29;20023;-87
2022/10/04 05:11:24;;;;;;;7.88;6.45;;;12.90;95.80;;;;;;4946537;29;20018;-82
2022/10/04 05:13:54;;;;;;;7.57;6.32;;;12.90;95.80;;;;;;4962424;29;20032;-80
2022/10/04 05:16:27;;;;;;;10.15;6.97;;;12.90;95.70;;;;;;4951238;29;20030;-82
2022/10/04 05:19:12;;;;;;;8.73;5.90;;;12.90;95.70;;;;;;4939627;29;20034;-82
2022/10/04 05:21:42;;;;;;;9.13;6.22;;;12.80;95.80;;;;;;4938425;29;20035;-86
2022/10/04 05:24:17;;;;;;;10.48;6.38;;;12.80;95.80;;;;;;4943318;29;20035;-83
2022/10/04 05:26:44;;;;;;;8.70;6.25;;;12.70;95.80;;;;;;4938851;29;20038;-83
2022/10/04 05:29:18;;;;;;;12.07;5.80;;;12.70;95.80;;;;;;4938886;29;20020;-83
2022/10/04 05:32:09;;;;;;;9.52;6.07;;;12.70;95.80;;;;;;4938530;29;20016;-83
2022/10/04 05:34:45;;;;;;;11.98;6.43;;;12.70;95.90;;;;;;4937526;29;20044;-85
2022/10/04 05:37:34;;;;;;;9.93;6.60;;;12.70;95.90;;;;;;4938919;29;20460;-84
2022/10/04 05:40:12;;;;;;;8.45;6.20;;;12.70;95.90;;;;;;4937850;29;20408;-84
2022/10/04 05:42:44;;;;;;;7.97;6.15;;;12.70;95.80;;;;;;4945025;29;20511;-84
2022/10/04 05:45:16;;;;;;;10.10;6.82;;;12.60;95.80;;;;;;4942043;29;20035;-83
2022/10/04 05:47:44;;;;;;;8.95;5.93;;;12.60;95.80;;;;;;4941973;29;20031;-84
2022/10/04 05:50:24;;;;;;;11.13;7.57;;;12.60;95.90;;;;;;4941637;29;20023;-85
2022/10/04 05:53:15;;;;;;;11.98;7.97;;;12.60;95.90;;;;;;4941626;29;20127;-83
2022/10/04 05:56:06;;;;;;;11.60;8.70;;;12.50;96.00;;;;;;4921958;29;20495;-84
2022/10/04 05:58:53;;;;;;;11.38;7.53;;;12.60;96.00;;;;;;4942359;29;20778;-84
2022/10/04 06:01:44;;;;;;;12.60;7.80;;;12.60;96.00;;;;;;4943251;29;20027;-84
2022/10/04 06:04:19;;;;;;;10.38;6.70;;;12.60;96.10;;;;;;4942382;29;20094;-84
2022/10/04 06:06:55;;;;;;;11.05;7.35;;;12.60;96.10;;;;;;4942703;29;20027;-84
2022/10/04 06:10:04;;;;;;;10.27;7.03;;;12.60;96.10;;;;;;4943148;29;20024;-85
2022/10/04 06:12:32;;;;;;;10.90;7.43;;;12.60;96.20;;;;;;4938838;29;20031;-84
2022/10/04 06:15:30;;;;;;;11.40;7.20;;;12.60;96.20;;;;;;4941882;29;20035;-84
2022/10/04 06:18:27;;;;;;;10.82;7.50;;;12.70;96.20;;;;;;4958912;29;20027;-83
2022/10/04 06:21:20;;;;;;;11.65;7.13;;;12.60;96.20;;;;;;4942940;29;20031;-83
2022/10/04 06:24:29;;;;;;;11.38;7.50;;;12.70;96.30;;;;;;4941555;29;20042;-82
2022/10/04 06:27:19;;;;;;;14.52;9.82;;;12.70;96.40;;;;;;4930482;29;20147;-84
2022/10/04 06:30:08;;;;;;;12.18;8.93;;;12.70;96.40;;;;;;4942225;29;20031;-83
2022/10/04 06:32:55;;;;;;;9.68;7.75;;;12.70;96.40;;;;;;4941293;29;20112;-84
2022/10/04 06:35:57;;;;;;;11.50;7.47;;;12.70;96.40;;;;;;4959042;29;20038;-83
2022/10/04 06:38:43;;;;;;;12.63;7.00;;;12.80;96.50;;;;;;4941907;29;20054;-83
2022/10/04 06:41:27;;;;;;;10.57;6.88;;;12.80;96.50;;;;;;4945604;29;20077;-84
2022/10/04 06:44:08;;;;;;;11.32;7.10;;;12.90;96.50;;;;;;4953018;29;20067;-85
2022/10/04 06:47:01;;;;;;;9.90;6.97;;;12.90;96.50;;;;;;4965006;29;20087;-83
2022/10/04 06:49:38;;;;;;;9.52;6.47;;;12.90;96.50;;;;;;4964423;29;20012;-83
2022/10/04 06:52:55;;;;;;;10.35;6.25;;;12.90;96.60;;;;;;4979273;29;20034;-81
2022/10/04 06:55:50;;;;;;;13.68;6.80;;;12.90;96.50;;;;;;4879941;29;20046;-83
2022/10/04 06:58:33;;;;;;;7.40;5.82;;;12.90;96.60;;;;;;4958777;29;20019;-83
2022/10/04 07:01:25;;;;;;;8.25;6.15;;;12.90;96.50;;;;;;4941234;29;20030;-84
2022/10/04 07:03:59;;;;;;;7.32;6.10;;;13.00;96.50;;;;;;4940707;29;20411;-83
2022/10/04 07:06:32;;;;;;;10.18;6.55;;;13.00;96.50;;;;;;4940724;29;20038;-83
2022/10/04 07:09:01;;;;;;;9.20;6.43;;;13.00;96.50;;;;;;4940878;29;20023;-83
2022/10/04 07:11:56;;;;;;;8.60;6.30;;;13.00;96.50;;;;;;4957857;29;20030;-84
2022/10/04 07:14:34;;;;;;;11.27;6.50;;;13.00;96.50;;;;;;4920485;29;20031;-85
2022/10/04 07:17:11;;;;;;;9.50;6.25;;;13.00;96.50;;;;;;4940855;29;20023;-84
2022/10/04 07:19:58;;;;;;;9.45;6.13;;;13.00;96.80;;;;;;4940819;29;20031;-83
2022/10/04 07:22:46;;;;;;;11.35;6.70;;;13.10;96.60;;;;;;4941369;29;20475;-83
2022/10/04 07:25:36;;;;;;;8.88;6.00;;;13.10;96.60;;;;;;4926341;29;20040;-85
2022/10/04 07:31:27;;;;;;;10.65;6.45;;;13.20;96.80;;;;;;4958521;29;20263;-84
2022/10/04 07:34:15;;;;;;;9.02;5.72;;;13.20;96.90;;;;;;4957096;28;20119;-84
2022/10/04 07:36:55;;;;;;;8.00;5.50;;;13.20;96.90;;;;;;4939254;29;20094;-85
2022/10/04 07:39:43;;;;;;;6.88;4.43;;;13.30;96.90;;;;;;4954618;29;20031;-84
2022/10/04 07:42:30;;;;;;;9.75;5.72;;;13.40;97.00;;;;;;4939538;29;20116;-85
2022/10/04 07:45:02;;;;;;;8.77;4.85;;;13.40;97.00;;;;;;4940166;29;20040;-84
2022/10/04 07:47:31;;;;;;;9.38;5.40;;;13.50;97.00;;;;;;4940209;29;20020;-84
2022/10/04 07:49:58;;;;;;;8.32;5.50;;;13.50;97.00;;;;;;4939849;29;20034;-85
2022/10/04 07:52:47;;;;;;;8.13;4.97;;;13.60;97.00;;;;;;4940522;29;20019;-85
2022/10/04 07:55:27;;;;;;;7.32;4.55;;;13.70;97.00;;;;;;4940721;29;20035;-84
2022/10/04 07:58:36;;;;;;;6.47;4.57;;;13.80;96.90;;;;;;4940297;29;20035;-84
2022/10/04 08:01:28;;;;;;;7.38;4.50;;;13.80;96.90;;;;;;4936146;29;20076;-85
2022/10/04 08:04:12;;;;;;;9.82;5.32;;;13.80;96.90;;;;;;4940352;29;20039;-85
2022/10/04 08:07:02;;;;;;;6.38;4.75;;;13.90;96.80;;;;;;4956891;29;20039;-84
2022/10/04 08:10:05;;;;;;;7.82;5.25;;;13.90;96.80;;;;;;4909521;29;20487;-83
2022/10/04 08:12:44;;;;;;;8.10;5.25;;;14.00;96.80;;;;;;4934874;29;20047;-83
2022/10/04 08:15:13;;;;;;;9.07;5.20;;;14.00;96.80;;;;;;4946889;29;20047;-84
2022/10/04 08:18:02;;;;;;;6.38;4.55;;;14.00;96.70;;;;;;4941903;29;20086;-88
2022/10/04 08:20:52;;;;;;;8.88;4.57;;;14.10;96.80;;;;;;4929943;29;20122;-85
2022/10/04 08:23:42;;;;;;;7.75;4.55;;;14.10;96.80;;;;;;4942237;29;20020;-85
2022/10/04 08:26:38;;;;;;;7.45;4.50;;;14.10;96.80;;;;;;4958220;29;20023;-85
2022/10/04 08:29:46;;;;;;;8.25;4.43;;;14.20;96.80;;;;;;4954191;29;20053;-83
2022/10/04 08:33:00;;;;;;;6.43;3.90;;;14.30;96.70;;;;;;4949328;29;20114;-84
2022/10/04 08:36:11;;;;;;;7.13;4.25;;;14.40;96.70;;;;;;4940814;29;20054;-84
2022/10/04 08:38:54;;;;;;;7.90;4.63;;;14.40;96.60;;;;;;4939604;29;20465;-82
2022/10/04 08:41:54;;;;;;;6.97;4.30;;;14.50;96.60;;;;;;4939851;29;20046;-83
2022/10/04 08:44:31;;;;;;;8.90;4.82;;;14.50;96.50;;;;;;4934845;29;20062;-83
2022/10/04 08:47:43;;;;;;;8.65;5.05;;;14.60;96.50;;;;;;4936075;29;20361;-83
2022/10/04 08:50:37;;;;;;;7.43;4.57;;;14.60;96.50;;;;;;4937590;29;20548;-83
2022/10/04 08:53:41;;;;;;;6.50;4.22;;;14.70;96.40;;;;;;4936503;29;20032;-84
2022/10/04 08:56:45;;;;;;;7.15;3.97;;;14.80;96.30;;;;;;4935955;29;20035;-84
2022/10/04 08:59:58;;;;;;;7.80;4.40;;;14.80;96.30;;;;;;4937104;29;20031;-84
2022/10/04 09:03:05;;;;;;;6.72;5.10;;;14.90;96.30;;;;;;4929081;29;20043;-83
2022/10/04 09:06:24;;;;;;;6.00;4.38;;;15.00;96.20;;;;;;4936530;29;20047;-83
2022/10/04 09:08:54;;;;;;;7.07;4.38;;;15.10;96.10;;;;;;4935624;29;20392;-84
2022/10/04 09:11:40;;;;;;;8.27;4.85;;;15.10;96.00;;;;;;4935762;29;20055;-83
2022/10/04 09:14:42;;;;;;;5.82;4.43;;;15.10;96.00;;;;;;4935363;29;20050;-84
2022/10/04 09:17:29;;;;;;;7.47;4.30;;;15.20;96.00;;;;;;4935902;29;20028;-84
2022/10/04 09:20:21;;;;;;;5.13;3.92;;;15.30;96.00;;;;;;4935171;29;20545;-83
2022/10/04 09:23:25;;;;;;;6.50;4.38;;;15.30;96.00;;;;;;4935483;29;20019;-85
2022/10/04 09:26:34;;;;;;;7.07;4.03;;;15.30;95.90;;;;;;4935747;29;20035;-84
2022/10/04 09:29:37;;;;;;;5.47;4.05;;;15.40;95.90;;;;;;4936747;29;20036;-85
2022/10/04 09:32:40;;;;;;;8.48;5.25;;;15.50;95.80;;;;;;4935269;29;20035;-84
2022/10/04 09:35:25;;;;;;;8.90;4.63;;;15.50;95.70;;;;;;4934158;29;20040;-84
2022/10/04 09:38:22;;;;;;;9.45;4.03;;;15.60;95.70;;;;;;4935389;29;20030;-84
2022/10/04 09:41:26;;;;;;;8.07;4.28;;;15.70;95.60;;;;;;4936714;29;20024;-86
2022/10/04 09:44:11;;;;;;;9.65;5.13;;;15.70;95.50;;;;;;4948808;29;20043;-84
2022/10/04 09:47:17;;;;;;;8.40;5.50;;;15.80;95.50;;;;;;4937923;29;20039;-85
2022/10/04 09:50:25;;;;;;;7.75;5.57;;;15.90;95.40;;;;;;4934107;29;20090;-83
2022/10/04 09:53:02;;;;;;;6.95;4.93;;;15.90;95.30;;;;;;4937491;29;20042;-85
2022/10/04 09:55:59;;;;;;;7.63;4.85;;;15.90;95.20;;;;;;4938979;29;20075;-84
2022/10/04 09:58:47;;;;;;;8.43;4.93;;;15.90;95.00;;;;;;4941932;29;20020;-83
2022/10/04 10:01:32;;;;;;;6.63;3.95;;;16.00;95.00;;;;;;4941070;29;20031;-84
2022/10/04 10:04:23;;;;;;;8.88;4.20;;;16.10;94.90;;;;;;4941752;29;20039;-83
2022/10/04 10:07:09;;;;;;;5.55;3.60;;;16.10;94.80;;;;;;4942691;29;20024;-83
2022/10/04 10:16:31;;;;;;;9.02;3.97;;;16.30;94.70;;;;;;4922522;29;20072;-85
2022/10/04 10:19:21;;;;;;;6.93;3.65;;;16.30;94.50;;;;;;4905044;29;20102;-83
2022/10/04 10:21:56;;;;;;;8.73;3.67;;;16.40;94.40;;;;;;4907003;29;20032;-84
2022/10/04 10:24:56;;;;;;;6.32;3.38;;;16.50;94.50;;;;;;4883414;29;20141;-84
2022/10/04 10:27:53;;;;;;;7.00;3.38;;;16.50;94.30;;;;;;4899447;29;20033;-83
2022/10/04 10:30:55;;;;;;;5.82;3.55;;;16.60;94.30;;;;;;4883661;29;20521;-83
2022/10/04 10:33:52;;;;;;;7.22;3.45;;;16.60;94.20;;;;;;4875385;29;20040;-84
2022/10/04 10:36:22;;;;;;;7.05;3.60;;;16.70;94.20;;;;;;4879322;29;20047;-88
2022/10/04 10:39:24;;;;;;;5.68;3.40;;;16.70;94.10;;;;;;4883233;29;20102;-84
2022/10/04 10:42:18;;;;;;;6.68;3.30;;;16.80;94.10;;;;;;4883199;29;20093;-83
2022/10/04 10:45:23;;;;;;;7.15;3.88;;;16.80;93.90;;;;;;4898341;29;20053;-83
2022/10/04 10:48:05;;;;;;;9.05;4.07;;;16.90;93.80;;;;;;4926349;29;20087;-84
2022/10/04 10:51:14;;;;;;;4.50;3.67;;;16.90;93.80;;;;;;4924775;29;20094;-84
2022/10/04 10:54:19;;;;;;;6.97;3.70;;;17.00;93.70;;;;;;4940549;29;20027;-84
2022/10/04 10:57:32;;;;;;;5.35;3.35;;;17.00;93.60;;;;;;4956826;29;20035;-84
2022/10/04 11:00:31;;;;;;;5.88;3.50;;;17.20;93.50;;;;;;4940324;29;20054;-83
2022/10/04 11:03:47;;;;;;;8.15;4.05;;;17.20;93.50;;;;;;4939778;29;20030;-86
2022/10/04 11:06:31;;;;;;;7.53;3.53;;;17.30;93.20;;;;;;4845783;29;20045;-84
2022/10/04 11:09:50;;;;;;;6.47;3.25;;;17.30;93.20;;;;;;4866856;29;20081;-84
2022/10/04 11:12:48;;;;;;;4.68;3.13;;;17.40;93.30;;;;;;4845120;29;20065;-84
2022/10/04 11:15:39;;;;;;;7.97;3.42;;;17.40;93.20;;;;;;4894654;29;20105;-83
2022/10/04 11:18:28;;;;;;;6.82;3.35;;;17.50;93.10;;;;;;4845081;29;20150;-84
2022/10/04 11:21:33;;;;;;;7.90;3.38;;;17.50;93.10;;;;;;4945676;29;20357;-84
2022/10/04 11:24:18;;;;;;;7.32;3.60;;;17.50;93.00;;;;;;4937524;29;20043;-85
2022/10/04 11:27:12;;;;;;;5.97;3.63;;;17.60;92.90;;;;;;4940029;29;20082;-84
2022/10/04 11:30:25;;;;;;;6.90;3.63;;;17.60;92.90;;;;;;4957337;29;20050;-83
2022/10/04 11:33:54;;;;;;;6.03;3.47;;;17.70;92.80;;;;;;4939612;29;20027;-83
2022/10/04 11:37:00;;;;;;;6.88;4.00;;;17.70;92.70;;;;;;4878758;29;20084;-84
2022/10/04 11:40:03;;;;;;;7.72;3.97;;;17.80;92.70;;;;;;4881922;29;20055;-83
2022/10/04 11:43:30;;;;;;;7.82;3.45;;;17.80;92.50;;;;;;4882380;29;20028;-84
2022/10/04 11:46:49;;;;;;;4.88;3.20;;;17.80;92.40;;;;;;4828306;29;20141;-85
2022/10/04 11:49:34;;;;;;;7.78;4.97;;;17.80;92.40;;;;;;4864239;29;20115;-84
2022/10/04 11:52:19;;;;;;;6.70;4.15;;;17.90;92.20;;;;;;4879221;29;20041;-83
2022/10/04 11:55:05;;;;;;;6.70;3.00;;;17.90;91.90;;;;;;4865052;29;20040;-84
2022/10/04 11:58:14;;;;;;;5.47;3.20;;;17.90;91.80;;;;;;4866540;29;20021;-82
2022/10/04 12:00:57;;;;;;;5.35;3.10;;;18.00;91.80;;;;;;4883265;29;20061;-84
2022/10/04 12:04:09;;;;;;;5.50;2.63;;;18.00;91.70;;;;;;4884341;29;20050;-84
2022/10/04 12:06:53;;;;;;;4.57;2.92;;;18.10;91.70;;;;;;4914113;29;20091;-85
2022/10/04 12:09:46;;;;;;;5.03;2.72;;;18.20;91.60;;;;;;4936574;29;20047;-84
2022/10/04 12:12:49;;;;;;;4.63;2.72;;;18.30;91.50;;;;;;4917584;29;20087;-84
2022/10/04 12:15:29;;;;;;;3.35;2.13;;;18.30;91.30;;;;;;4918380;29;20036;-84
2022/10/04 12:18:33;;;;;;;4.43;2.42;;;18.30;91.40;;;;;;4917506;29;20020;-83
2022/10/04 12:21:18;;;;;;;5.32;2.50;;;18.30;91.20;;;;;;4916800;29;20028;-84
2022/10/04 12:24:23;;;;;;;4.97;2.60;;;18.40;91.10;;;;;;4916707;29;20032;-84
2022/10/04 12:27:09;;;;;;;6.40;2.88;;;18.40;90.90;;;;;;4918075;29;20028;-84
2022/10/04 12:30:13;;;;;;;4.30;2.70;;;18.50;90.90;;;;;;4918315;29;20034;-84
2022/10/04 12:32:47;;;;;;;3.97;2.60;;;18.50;90.80;;;;;;4932539;29;20027;-84
2022/10/04 12:35:32;;;;;;;6.50;2.80;;;18.50;90.90;;;;;;4916681;29;20042;-85
2022/10/04 12:38:18;;;;;;;6.05;3.22;;;18.50;90.90;;;;;;4932759;29;20099;-83
2022/10/04 12:40:56;;;;;;;5.13;2.55;;;18.50;90.70;;;;;;4917872;29;20065;-84
2022/10/04 12:43:41;;;;;;;4.32;2.67;;;18.50;90.70;;;;;;4931685;29;20407;-83
2022/10/04 12:46:52;;;;;;;3.83;2.10;;;18.60;90.60;;;;;;4953913;29;20035;-84
2022/10/04 12:49:47;;;;;;;5.53;2.30;;;18.60;90.70;;;;;;4938793;29;20024;-84
2022/10/04 12:52:33;;;;;;;3.50;1.90;;;18.60;90.60;;;;;;4956027;29;20027;-85
2022/10/04 12:55:22;;;;;;;6.53;1.95;;;18.70;90.40;;;;;;4938386;29;20028;-83
2022/10/04 12:58:15;;;;;;;3.75;1.90;;;18.80;90.20;;;;;;4938573;29;20086;-83
2022/10/04 13:00:47;;;;;;;4.30;2.17;;;18.80;90.10;;;;;;4938947;29;20023;-84
2022/10/04 13:03:30;;;;;;;4.72;2.30;;;18.90;90.10;;;;;;4938463;29;20391;-85
2022/10/04 13:06:23;;;;;;;3.85;2.00;;;19.00;90.00;;;;;;4955675;29;20592;-84
2022/10/04 13:09:00;;;;;;;;;;;19.10;89.60;;;;;;4938509;29;20083;-85
2022/10/04 13:12:03;;;;;;;2.80;2.00;;;19.10;89.70;;;;;;4933715;29;19953;-85
2022/10/04 13:14:59;;;;;;;3.33;1.92;;;19.10;89.10;;;;;;4955518;29;20507;-84
2022/10/04 13:17:42;;;;;;;3.95;1.90;;;19.20;88.80;;;;;;4938697;29;20027;-83
2022/10/04 13:20:32;;;;;;;4.47;2.42;;;19.20;88.70;;;;;;4938591;29;20059;-84
2022/10/04 13:23:22;;;;;;;3.00;1.80;;;19.20;88.40;;;;;;4938597;29;20027;-83
2022/10/04 13:26:27;;;;;;;6.80;2.42;;;19.30;88.80;;;;;;4938633;29;20027;-84
2022/10/04 13:29:14;;;;;;;4.35;1.98;;;19.30;87.70;;;;;;4938714;29;20049;-85
2022/10/04 13:31:47;;;;;;;4.47;2.25;;;19.30;87.80;;;;;;4957963;28;20042;-83
2022/10/04 13:34:59;;;;;;;3.03;1.70;;;19.30;87.80;;;;;;4962307;29;20024;-85
2022/10/04 13:37:31;;;;;;;;;;;19.30;87.70;;;;;;4960806;29;20038;-84
2022/10/04 13:40:31;;;;;;;3.35;1.95;;;19.30;87.60;;;;;;4946951;29;19907;-83
2022/10/04 13:43:27;;;;;;;3.50;2.10;;;19.30;87.40;;;;;;4947774;29;20048;-85
2022/10/04 13:46:39;;;;;;;4.15;1.98;;;19.20;87.20;;;;;;4954646;29;20039;-86
2022/10/04 13:49:40;;;;;;;3.42;2.28;;;19.20;86.50;;;;;;4973980;29;20046;-83
2022/10/04 13:58:33;;;;;;;2.67;1.98;;;19.10;85.80;;;;;;4969810;29;20074;-84
2022/10/04 14:01:21;;;;;;;2.03;1.63;;;19.20;85.90;;;;;;4947868;29;20491;-85
2022/10/04 14:03:58;;;;;;;3.85;1.80;;;19.20;86.00;;;;;;4945575;29;20078;-84
2022/10/04 14:07:20;;;;;;;4.05;1.98;;;19.20;85.70;;;;;;4942153;29;20035;-84
2022/10/04 14:10:18;;;;;;;3.78;1.98;;;19.20;85.60;;;;;;4847307;29;20054;-85
2022/10/04 14:13:04;;;;;;;3.47;1.85;;;19.20;85.90;;;;;;4846854;29;20134;-83
2022/10/04 14:16:09;;;;;;;5.03;2.20;;;19.30;85.90;;;;;;4846041;29;20037;-86
2022/10/04 14:19:15;;;;;;;4.35;1.80;;;19.40;85.80;;;;;;4841551;29;20038;-84
2022/10/04 14:21:41;;;;;;;5.03;2.00;;;19.40;85.90;;;;;;4930225;29;20190;-85
2022/10/04 14:24:19;;;;;;;4.50;2.30;;;19.40;86.00;;;;;;4941637;29;20031;-86
2022/10/04 14:27:16;;;;;;;3.67;1.95;;;19.40;85.60;;;;;;4941379;29;20031;-86
2022/10/04 14:30:06;;;;;;;3.17;1.95;;;19.40;85.60;;;;;;4940907;29;20191;-84
2022/10/04 14:32:47;;;;;;;4.47;2.03;;;19.40;85.60;;;;;;4940788;29;20125;-83
2022/10/04 14:35:43;;;;;;;3.45;2.03;;;19.40;85.60;;;;;;4958265;29;20059;-85